createdAt,value
2018-06-11T00:00:05.984Z,38.03
2018-06-11T00:00:39.372Z,38.33
2018-06-11T00:01:13.002Z,36.13
2018-06-11T00:01:46.425Z,36.87
2018-06-11T00:02:19.738Z,38.23
2018-06-11T00:02:53.010Z,37.53
2018-06-11T00:03:26.314Z,36.80
2018-06-11T00:03:59.415Z,37.87
2018-06-11T00:04:32.722Z,39.30
2018-06-11T00:05:06.035Z,38.13
2018-06-11T00:05:39.664Z,38.20
2018-06-11T00:06:12.970Z,37.00
2018-06-11T00:06:46.317Z,35.43
2018-06-11T00:07:19.598Z,36.10
2018-06-11T00:07:52.896Z,35.93
2018-06-11T00:08:26.224Z,38.50
2018-06-11T00:08:59.560Z,35.90
2018-06-11T00:09:32.862Z,39.20
2018-06-11T00:10:06.527Z,39.27
2018-06-11T00:10:39.833Z,39.03
2018-06-11T00:11:13.132Z,40.17
2018-06-11T00:11:46.798Z,39.90
2018-06-11T00:12:20.080Z,38.30
2018-06-11T00:12:53.724Z,40.83
2018-06-11T00:13:27.242Z,38.20
2018-06-11T00:14:00.622Z,40.27
2018-06-11T00:14:33.920Z,36.97
2018-06-11T00:15:07.554Z,37.00
2018-06-11T00:15:40.856Z,40.17
2018-06-11T00:16:14.266Z,44.53
2018-06-11T00:16:47.605Z,42.67
2018-06-11T00:17:20.890Z,39.07
2018-06-11T00:17:54.190Z,41.70
2018-06-11T00:18:27.496Z,37.00
2018-06-11T00:19:00.794Z,39.00
2018-06-11T00:19:34.130Z,40.50
2018-06-11T00:20:09.099Z,38.87
2018-06-11T00:20:42.400Z,42.10
2018-06-11T00:21:15.712Z,35.77
2018-06-11T00:21:49.051Z,36.27
2018-06-11T00:22:22.324Z,38.80
2018-06-11T00:22:55.837Z,43.67
2018-06-11T00:23:29.286Z,42.53
2018-06-11T00:24:02.610Z,42.10
2018-06-11T00:24:36.176Z,43.07
2018-06-11T00:25:09.495Z,42.70
2018-06-11T00:25:44.410Z,38.73
2018-06-11T00:26:17.707Z,43.53
2018-06-11T00:26:54.156Z,44.50
2018-06-11T00:27:27.484Z,43.63
2018-06-11T00:28:00.816Z,37.10
2018-06-11T00:28:34.116Z,40.30
2018-06-11T00:29:09.350Z,39.83
2018-06-11T00:29:43.188Z,39.40
2018-06-11T00:30:16.643Z,44.63
2018-06-11T00:30:50.876Z,42.40
2018-06-11T00:31:25.204Z,41.87
2018-06-11T00:31:58.566Z,40.20
2018-06-11T00:32:31.858Z,40.00
2018-06-11T00:33:05.262Z,43.20
2018-06-11T00:33:38.552Z,41.27
2018-06-11T00:34:11.834Z,40.00
2018-06-11T00:34:46.160Z,42.97
2018-06-11T00:35:19.497Z,45.27
2018-06-11T00:35:52.817Z,39.73
2018-06-11T00:36:26.444Z,39.17
2018-06-11T00:37:00.112Z,39.83
2018-06-11T00:37:33.440Z,42.30
2018-06-11T00:38:06.752Z,47.17
2018-06-11T00:38:40.054Z,42.40
2018-06-11T00:39:13.334Z,42.87
2018-06-11T00:39:46.943Z,38.73
2018-06-11T00:40:20.271Z,42.23
2018-06-11T00:40:53.553Z,42.73
2018-06-11T00:41:26.864Z,40.87
2018-06-11T00:42:00.262Z,42.00
2018-06-11T00:42:34.523Z,41.73
2018-06-11T00:43:08.015Z,41.00
2018-06-11T00:43:41.315Z,37.53
2018-06-11T00:44:15.653Z,41.93
2018-06-11T00:44:50.028Z,39.43
2018-06-11T00:45:23.319Z,47.83
2018-06-11T00:45:56.399Z,41.37
2018-06-11T00:46:29.695Z,40.67
2018-06-11T00:47:03.228Z,43.33
2018-06-11T00:47:36.738Z,40.43
2018-06-11T00:48:10.080Z,38.80
2018-06-11T00:48:44.204Z,42.40
2018-06-11T00:49:17.552Z,35.60
2018-06-11T00:49:50.960Z,39.70
2018-06-11T00:50:24.238Z,37.27
2018-06-11T00:50:57.806Z,37.60
2018-06-11T00:51:31.104Z,37.43
2018-06-11T00:52:04.570Z,42.83
2018-06-11T00:52:37.896Z,41.83
2018-06-11T00:53:11.224Z,38.43
2018-06-11T00:53:44.610Z,44.17
2018-06-11T00:54:18.048Z,37.03
2018-06-11T00:54:51.089Z,41.77
2018-06-11T00:55:28.855Z,39.50
2018-06-11T00:56:09.941Z,36.57
2018-06-11T00:56:43.536Z,37.30
2018-06-11T00:57:16.870Z,41.20
2018-06-11T00:57:50.152Z,44.00
2018-06-11T00:58:23.526Z,36.83
2018-06-11T00:58:56.824Z,37.90
2018-06-11T00:59:30.214Z,37.70
2018-06-11T01:00:03.539Z,42.10
2018-06-11T01:00:37.416Z,36.07
2018-06-11T01:01:10.692Z,46.27
2018-06-11T01:01:43.976Z,39.10
2018-06-11T01:02:17.985Z,34.43
2018-06-11T01:02:51.283Z,35.00
2018-06-11T01:03:24.582Z,38.17
2018-06-11T01:03:57.879Z,33.70
2018-06-11T01:04:31.194Z,34.80
2018-06-11T01:05:04.815Z,35.43
2018-06-11T01:05:38.116Z,38.97
2018-06-11T01:06:11.450Z,36.60
2018-06-11T01:06:44.758Z,37.80
2018-06-11T01:07:18.079Z,32.67
2018-06-11T01:07:51.372Z,36.20
2018-06-11T01:08:24.782Z,36.43
2018-06-11T01:08:58.131Z,35.20
2018-06-11T01:09:31.396Z,33.87
2018-06-11T01:10:05.039Z,34.30
2018-06-11T01:10:38.366Z,32.57
2018-06-11T01:11:12.108Z,33.40
2018-06-11T01:11:45.783Z,35.10
2018-06-11T01:12:20.701Z,35.27
2018-06-11T01:12:54.033Z,36.10
2018-06-11T01:13:27.987Z,36.13
2018-06-11T01:14:01.260Z,31.93
2018-06-11T01:14:34.667Z,42.83
2018-06-11T01:15:07.970Z,33.73
2018-06-11T01:15:41.232Z,34.80
2018-06-11T01:16:14.535Z,34.50
2018-06-11T01:16:48.510Z,33.77
2018-06-11T01:17:21.879Z,33.20
2018-06-11T01:17:55.179Z,35.07
2018-06-11T01:18:28.488Z,37.90
2018-06-11T01:19:02.058Z,35.30
2018-06-11T01:19:35.401Z,38.10
2018-06-11T01:20:08.751Z,33.67
2018-06-11T01:20:42.377Z,33.40
2018-06-11T01:21:15.678Z,32.83
2018-06-11T01:21:55.555Z,35.97
2018-06-11T01:22:29.008Z,34.77
2018-06-11T01:23:02.309Z,32.80
2018-06-11T01:23:35.637Z,30.67
2018-06-11T01:24:08.964Z,30.80
2018-06-11T01:24:42.298Z,36.80
2018-06-11T01:25:15.657Z,42.80
2018-06-11T01:25:48.954Z,31.17
2018-06-11T01:26:22.279Z,35.13
2018-06-11T01:26:55.567Z,37.03
2018-06-11T01:27:28.893Z,37.63
2018-06-11T01:28:02.371Z,31.87
2018-06-11T01:28:35.700Z,35.43
2018-06-11T01:29:09.017Z,28.70
2018-06-11T01:29:42.349Z,34.10
2018-06-11T01:30:15.655Z,32.37
2018-06-11T01:30:48.949Z,34.10
2018-06-11T01:31:22.250Z,30.60
2018-06-11T01:31:55.544Z,37.87
2018-06-11T01:32:29.421Z,40.73
2018-06-11T01:33:02.681Z,32.13
2018-06-11T01:33:36.009Z,27.83
2018-06-11T01:34:09.329Z,33.17
2018-06-11T02:54:45.589Z,23.70
2018-06-11T02:55:19.194Z,21.83
2018-06-11T02:55:52.493Z,17.57
2018-06-11T02:56:25.780Z,20.33
2018-06-11T02:56:59.108Z,15.13
2018-06-11T02:57:32.416Z,15.47
2018-06-11T02:58:06.872Z,13.03
2018-06-11T02:58:40.293Z,13.07
2018-06-11T02:59:13.628Z,20.23
2018-06-11T02:59:46.969Z,14.40
2018-06-11T03:00:20.707Z,13.43
2018-06-11T03:00:54.037Z,11.10
2018-06-11T03:01:27.333Z,12.83
2018-06-11T03:02:00.636Z,13.23
2018-06-11T03:02:34.063Z,12.40
2018-06-11T03:03:07.333Z,12.60
2018-06-11T03:03:40.611Z,11.20
2018-06-11T03:04:13.961Z,9.67
2018-06-11T03:04:47.296Z,13.77
2018-06-11T03:05:20.624Z,10.73
2018-06-11T03:05:53.941Z,15.67
2018-06-11T03:06:27.240Z,12.93
2018-06-11T03:07:00.497Z,12.40
2018-06-11T03:07:34.128Z,13.03
2018-06-11T03:08:07.451Z,10.03
2018-06-11T03:08:40.749Z,11.00
2018-06-11T03:09:14.096Z,12.50
2018-06-11T03:09:47.428Z,14.03
2018-06-11T03:10:21.121Z,10.80
2018-06-11T03:10:54.430Z,13.23
2018-06-11T03:11:27.762Z,9.63
2018-06-11T03:12:01.092Z,10.90
2018-06-11T03:12:34.791Z,11.40
2018-06-11T03:13:08.096Z,10.13
2018-06-11T03:13:41.377Z,11.57
2018-06-11T03:14:14.699Z,11.03
2018-06-11T03:14:48.007Z,10.10
2018-06-11T03:15:21.275Z,9.30
2018-06-11T03:15:54.607Z,14.10
2018-06-11T03:16:28.031Z,10.83
2018-06-11T03:17:01.370Z,8.83
2018-06-11T03:17:34.665Z,9.40
2018-06-11T03:18:07.969Z,10.33
2018-06-11T03:18:41.305Z,12.43
2018-06-11T03:19:14.703Z,11.53
2018-06-11T03:19:48.016Z,12.60
2018-06-11T03:20:21.289Z,11.33
2018-06-11T03:20:54.613Z,11.03
2018-06-11T03:21:27.889Z,10.27
2018-06-11T03:22:01.208Z,12.43
2018-06-11T03:22:35.310Z,9.43
2018-06-11T03:23:08.638Z,10.80
2018-06-11T03:23:42.255Z,10.40
2018-06-11T03:24:15.595Z,8.43
2018-06-11T03:24:48.887Z,11.20
2018-06-11T03:25:22.179Z,11.80
2018-06-11T03:25:55.469Z,9.27
2018-06-11T03:26:28.780Z,11.33
2018-06-11T03:27:02.085Z,10.57
2018-06-11T03:27:35.385Z,11.07
2018-06-11T03:28:08.699Z,11.60
2018-06-11T03:28:41.985Z,10.27
2018-06-11T03:29:15.297Z,13.07
2018-06-11T03:29:48.580Z,9.77
2018-06-11T03:30:21.872Z,11.00
2018-06-11T03:30:55.184Z,10.43
2018-06-11T03:31:28.480Z,9.37
2018-06-11T03:32:02.370Z,12.43
2018-06-11T03:32:35.678Z,10.60
2018-06-11T03:33:08.971Z,9.33
2018-06-11T03:33:42.309Z,10.10
2018-06-11T03:34:15.643Z,8.57
2018-06-11T03:34:49.267Z,15.00
2018-06-11T03:35:22.324Z,14.67
2018-06-11T03:35:55.630Z,11.50
2018-06-11T03:36:28.918Z,9.07
2018-06-11T03:37:02.564Z,10.87
2018-06-11T03:37:35.842Z,10.97
2018-06-11T03:38:09.486Z,10.03
2018-06-11T03:38:42.793Z,9.10
2018-06-11T03:39:16.479Z,13.40
2018-06-11T03:39:49.783Z,11.07
2018-06-11T03:40:23.096Z,9.60
2018-06-11T03:40:56.407Z,12.63
2018-06-11T03:41:29.734Z,10.40
2018-06-11T03:42:03.083Z,10.20
2018-06-11T03:42:36.480Z,12.37
2018-06-11T03:43:09.799Z,13.20
2018-06-11T03:43:43.105Z,9.27
2018-06-11T03:44:16.427Z,10.80
2018-06-11T03:44:49.819Z,15.20
2018-06-11T03:45:23.159Z,12.13
2018-06-11T03:45:56.448Z,13.60
2018-06-11T03:46:29.764Z,11.67
2018-06-11T03:47:03.083Z,10.20
2018-06-11T03:47:36.403Z,14.40
2018-06-11T03:48:09.709Z,10.43
2018-06-11T03:48:43.685Z,12.00
2018-06-11T03:49:17.087Z,11.70
2018-06-11T03:49:50.405Z,9.83
2018-06-11T03:50:24.071Z,14.60
2018-06-11T03:50:57.367Z,11.13
2018-06-11T03:51:30.636Z,15.30
2018-06-11T03:52:03.946Z,13.03
2018-06-11T03:52:37.290Z,12.77
2018-06-11T03:53:48.139Z,9.97
2018-06-11T03:54:21.555Z,13.03
2018-06-11T03:54:54.867Z,10.00
2018-06-11T03:55:28.171Z,9.90
2018-06-11T03:56:01.454Z,19.00
2018-06-11T03:56:34.777Z,11.20
2018-06-11T03:57:08.422Z,11.97
2018-06-11T03:57:41.806Z,17.33
2018-06-11T03:58:15.453Z,13.67
2018-06-11T03:58:49.056Z,10.83
2018-06-11T03:59:22.406Z,10.37
2018-06-11T03:59:55.721Z,11.80
2018-06-11T04:00:29.078Z,11.57
2018-06-11T04:01:02.381Z,13.73
2018-06-11T04:01:35.690Z,10.53
2018-06-11T04:02:09.245Z,13.50
2018-06-11T04:02:42.528Z,9.87
2018-06-11T04:03:15.793Z,10.03
2018-06-11T04:03:49.103Z,12.30
2018-06-11T04:04:22.434Z,10.90
2018-06-11T04:04:55.750Z,10.30
2018-06-11T04:05:29.388Z,9.27
2018-06-11T04:06:02.667Z,10.37
2018-06-11T04:06:36.020Z,10.27
2018-06-11T04:07:09.312Z,12.17
2018-06-11T04:07:42.679Z,11.83
2018-06-11T04:08:15.992Z,9.50
2018-06-11T04:08:49.298Z,9.50
2018-06-11T04:09:22.758Z,13.53
2018-06-11T04:09:56.080Z,18.17
2018-06-11T04:10:29.446Z,10.17
2018-06-11T04:11:02.569Z,12.60
2018-06-11T04:11:36.293Z,11.27
2018-06-11T04:12:09.588Z,12.40
2018-06-11T04:12:42.917Z,12.17
2018-06-11T04:13:16.269Z,10.10
2018-06-11T04:13:49.564Z,12.50
2018-06-11T04:14:22.917Z,14.63
2018-06-11T04:14:56.039Z,12.37
2018-06-11T04:15:29.378Z,11.33
2018-06-11T04:16:02.701Z,13.83
2018-06-11T04:16:36.085Z,15.03
2018-06-11T04:17:09.749Z,12.07
2018-06-11T04:17:43.086Z,13.90
2018-06-11T04:18:16.439Z,15.67
2018-06-11T04:18:49.766Z,11.70
2018-06-11T04:19:23.083Z,13.27
2018-06-11T04:19:56.354Z,16.03
2018-06-11T04:20:29.396Z,14.83
2018-06-11T04:21:02.690Z,15.90
2018-06-11T04:21:35.779Z,14.50
2018-06-11T04:22:08.950Z,12.87
2018-06-11T04:22:42.428Z,13.93
2018-06-11T04:23:15.738Z,11.60
2018-06-11T04:23:49.042Z,11.77
2018-06-11T04:24:22.342Z,12.13
2018-06-11T04:24:55.664Z,14.93
2018-06-11T04:25:28.961Z,13.03
2018-06-11T04:26:02.604Z,13.53
2018-06-11T04:26:35.908Z,13.10
2018-06-11T04:27:09.170Z,13.73
2018-06-11T04:27:42.528Z,15.10
2018-06-11T04:28:15.827Z,14.20
2018-06-11T04:28:49.090Z,15.17
2018-06-11T04:29:22.370Z,12.13
2018-06-11T04:29:55.685Z,13.10
2018-06-11T04:30:28.956Z,15.00
2018-06-11T04:31:02.210Z,12.67
2018-06-11T04:31:35.590Z,12.10
2018-06-11T04:32:09.149Z,11.90
2018-06-11T04:32:42.484Z,16.23
2018-06-11T04:33:15.803Z,13.57
2018-06-11T04:33:49.128Z,15.10
2018-06-11T04:34:22.427Z,17.00
2018-06-11T04:34:55.762Z,17.07
2018-06-11T04:35:29.091Z,13.47
2018-06-11T04:36:02.448Z,17.10
2018-06-11T04:36:36.084Z,11.20
2018-06-11T04:37:09.414Z,15.40
2018-06-11T04:37:42.734Z,13.50
2018-06-11T04:38:16.064Z,12.70
2018-06-11T04:38:49.415Z,13.60
2018-06-11T04:39:22.570Z,15.90
2018-06-11T04:39:55.905Z,12.80
2018-06-11T04:40:29.218Z,12.67
2018-06-11T04:41:03.686Z,14.53
2018-06-11T04:41:38.069Z,14.60
2018-06-11T04:42:11.116Z,11.70
2018-06-11T04:42:44.452Z,14.77
2018-06-11T04:43:17.724Z,16.53
2018-06-11T04:43:50.988Z,12.77
2018-06-11T04:44:24.293Z,15.60
2018-06-11T04:44:57.677Z,14.67
2018-06-11T04:45:30.982Z,14.63
2018-06-11T04:46:04.276Z,9.70
2018-06-11T04:46:37.622Z,14.47
2018-06-11T04:47:10.932Z,16.10
2018-06-11T04:47:44.268Z,11.40
2018-06-11T04:48:17.560Z,13.00
2018-06-11T04:48:50.891Z,11.37
2018-06-11T04:49:24.194Z,12.23
2018-06-11T04:49:57.634Z,10.07
2018-06-11T04:50:31.263Z,18.00
2018-06-11T04:51:04.567Z,12.83
2018-06-11T04:51:37.902Z,12.50
2018-06-11T04:52:11.192Z,12.77
2018-06-11T04:52:44.799Z,12.37
2018-06-11T04:53:18.187Z,16.10
2018-06-11T04:53:51.728Z,13.00
2018-06-11T04:54:25.022Z,12.50
2018-06-11T04:54:58.346Z,9.57
2018-06-11T04:55:31.642Z,13.33
2018-06-11T04:56:05.028Z,10.87
2018-06-11T04:56:38.386Z,13.90
2018-06-11T04:57:11.675Z,11.93
2018-06-11T04:57:44.942Z,14.80
2018-06-11T04:58:18.264Z,13.17
2018-06-11T04:58:51.561Z,14.20
2018-06-11T04:59:24.872Z,13.13
2018-06-11T04:59:58.212Z,13.23
2018-06-11T05:00:31.496Z,11.17
2018-06-11T05:01:04.806Z,14.80
2018-06-11T05:01:38.081Z,9.63
2018-06-11T05:02:11.402Z,11.57
2018-06-11T05:02:44.722Z,10.83
2018-06-11T05:03:18.039Z,10.30
2018-06-11T05:03:51.077Z,11.60
2018-06-11T05:04:24.384Z,13.10
2018-06-11T05:04:57.690Z,14.37
2018-06-11T05:05:30.985Z,11.07
2018-06-11T05:06:04.260Z,12.30
2018-06-11T05:06:37.555Z,11.37
2018-06-11T05:07:10.849Z,16.47
2018-06-11T05:07:44.166Z,15.97
2018-06-11T05:08:17.496Z,10.50
2018-06-11T05:08:50.798Z,11.00
2018-06-11T05:09:24.100Z,14.07
2018-06-11T05:09:57.376Z,9.23
2018-06-11T05:10:30.680Z,9.80
2018-06-11T05:11:04.244Z,12.90
2018-06-11T05:11:37.736Z,11.23
2018-06-11T05:12:11.074Z,10.23
2018-06-11T05:12:44.393Z,12.53
2018-06-11T05:13:17.715Z,11.13
2018-06-11T05:13:51.028Z,12.20
2018-06-11T05:14:24.402Z,10.60
2018-06-11T05:14:57.697Z,14.60
2018-06-11T05:15:31.050Z,10.20
2018-06-11T05:16:04.489Z,11.03
2018-06-11T05:16:37.796Z,9.00
2018-06-11T05:17:11.090Z,11.83
2018-06-11T05:17:44.378Z,12.07
2018-06-11T05:18:17.704Z,15.33
2018-06-11T05:18:51.004Z,17.07
2018-06-11T05:19:24.347Z,15.73
2018-06-11T05:19:57.691Z,9.40
2018-06-11T05:20:30.998Z,12.47
2018-06-11T05:21:05.085Z,13.50
2018-06-11T05:21:38.436Z,12.57
2018-06-11T05:22:11.714Z,11.60
2018-06-11T05:22:46.242Z,9.93
2018-06-11T05:23:19.709Z,11.80
2018-06-11T05:23:53.127Z,10.93
2018-06-11T05:24:26.412Z,12.60
2018-06-11T05:24:59.734Z,12.47
2018-06-11T05:25:33.050Z,11.83
2018-06-11T05:26:06.172Z,13.70
2018-06-11T05:26:39.665Z,13.33
2018-06-11T05:27:12.948Z,10.53
2018-06-11T05:27:46.238Z,9.83
2018-06-11T05:28:19.536Z,14.80
2018-06-11T05:28:52.929Z,13.00
2018-06-11T05:29:26.238Z,13.00
2018-06-11T05:29:59.579Z,10.60
2018-06-11T05:30:32.916Z,11.40
2018-06-11T05:31:06.245Z,12.87
2018-06-11T05:31:39.542Z,13.90
2018-06-11T05:32:12.837Z,10.57
2018-06-11T05:32:46.128Z,15.10
2018-06-11T05:33:19.404Z,16.63
2018-06-11T05:33:53.072Z,13.07
2018-06-11T05:34:26.384Z,9.93
2018-06-11T05:34:59.664Z,12.50
2018-06-11T05:35:33.308Z,11.40
2018-06-11T05:36:07.022Z,15.63
2018-06-11T05:36:40.620Z,14.77
2018-06-11T05:37:13.941Z,9.40
2018-06-11T05:37:47.282Z,10.50
2018-06-11T05:38:20.624Z,13.60
2018-06-11T05:38:53.918Z,13.10
2018-06-11T05:39:27.198Z,12.33
2018-06-11T05:40:00.476Z,11.77
2018-06-11T05:40:33.792Z,9.80
2018-06-11T05:41:07.817Z,13.20
2018-06-11T05:41:41.186Z,12.53
2018-06-11T05:42:14.504Z,13.40
2018-06-11T05:42:48.110Z,10.67
2018-06-11T05:43:21.384Z,9.90
2018-06-11T05:43:54.660Z,9.90
2018-06-11T05:44:27.944Z,11.63
2018-06-11T05:45:01.210Z,10.10
2018-06-11T05:45:34.523Z,13.20
2018-06-11T05:46:07.628Z,16.20
2018-06-11T05:46:40.906Z,8.87
2018-06-11T05:47:14.204Z,10.60
2018-06-11T05:47:47.817Z,15.20
2018-06-11T05:48:21.116Z,11.00
2018-06-11T05:48:54.425Z,15.07
2018-06-11T05:49:27.779Z,9.70
2018-06-11T05:50:01.104Z,11.50
2018-06-11T05:50:34.722Z,10.63
2018-06-11T05:51:08.351Z,11.13
2018-06-11T05:51:41.647Z,17.73
2018-06-11T05:52:14.974Z,11.20
2018-06-11T05:52:48.469Z,9.47
2018-06-11T05:53:21.815Z,9.33
2018-06-11T05:53:55.250Z,13.17
2018-06-11T05:54:28.553Z,15.73
2018-06-11T05:55:01.860Z,10.53
2018-06-11T05:55:35.149Z,10.27
2018-06-11T05:56:08.429Z,14.40
2018-06-11T05:56:41.753Z,15.03
2018-06-11T05:57:14.802Z,11.30
2018-06-11T05:57:48.112Z,11.73
2018-06-11T05:58:21.391Z,10.90
2018-06-11T05:58:54.664Z,11.13
2018-06-11T05:59:27.942Z,15.50
2018-06-11T06:00:01.056Z,11.27
2018-06-11T06:00:34.404Z,9.60
2018-06-11T06:01:07.681Z,11.70
2018-06-11T06:01:41.320Z,14.57
2018-06-11T06:02:14.634Z,11.77
2018-06-11T06:02:47.982Z,9.43
2018-06-11T06:03:21.298Z,12.10
2018-06-11T06:03:54.592Z,9.53
2018-06-11T06:04:27.930Z,13.53
2018-06-11T06:05:01.252Z,8.77
2018-06-11T06:05:34.564Z,9.03
2018-06-11T06:06:07.870Z,11.30
2018-06-11T06:06:41.254Z,9.63
2018-06-11T06:07:15.146Z,7.83
2018-06-11T06:07:48.441Z,12.53
2018-06-11T06:08:21.724Z,9.70
2018-06-11T06:08:55.480Z,10.33
2018-06-11T06:09:28.815Z,10.40
2018-06-11T06:10:02.100Z,8.27
2018-06-11T06:10:35.443Z,8.17
2018-06-11T06:11:08.746Z,8.43
2018-06-11T06:11:42.433Z,5.90
2018-06-11T06:12:15.705Z,12.00
2018-06-11T06:12:49.042Z,8.30
2018-06-11T06:13:22.134Z,10.97
2018-06-11T06:13:55.489Z,8.30
2018-06-11T06:14:28.862Z,7.23
2018-06-11T06:15:02.196Z,6.10
2018-06-11T06:15:35.498Z,10.80
2018-06-11T06:16:09.169Z,10.30
2018-06-11T06:16:42.514Z,5.80
2018-06-11T06:17:15.812Z,7.40
2018-06-11T06:17:49.120Z,7.30
2018-06-11T06:18:22.415Z,6.83
2018-06-11T06:18:55.693Z,7.47
2018-06-11T06:19:29.092Z,5.63
2018-06-11T06:20:02.386Z,9.13
2018-06-11T06:20:35.444Z,8.33
2018-06-11T06:21:08.728Z,5.73
2018-06-11T06:21:42.081Z,5.97
2018-06-11T06:22:15.377Z,4.87
2018-06-11T06:22:48.658Z,13.50
2018-06-11T06:23:22.036Z,8.13
2018-06-11T06:23:55.300Z,6.80
2018-06-11T06:24:28.974Z,5.87
2018-06-11T06:25:02.275Z,8.63
2018-06-11T06:25:35.584Z,10.47
2018-06-11T06:26:08.898Z,9.50
2018-06-11T06:26:42.225Z,6.43
2018-06-11T06:27:15.717Z,6.50
2018-06-11T06:27:49.168Z,10.23
2018-06-11T06:28:22.491Z,7.63
2018-06-11T06:28:55.828Z,6.00
2018-06-11T06:29:29.164Z,4.30
2018-06-11T06:30:02.464Z,7.20
2018-06-11T06:30:35.773Z,6.30
2018-06-11T06:31:09.150Z,6.90
2018-06-11T06:31:42.470Z,8.70
2018-06-11T06:32:16.158Z,8.00
2018-06-11T06:32:49.438Z,6.10
2018-06-11T06:33:22.736Z,7.00
2018-06-11T06:33:56.049Z,11.33
2018-06-11T06:34:29.435Z,5.63
2018-06-11T06:35:02.973Z,5.40
2018-06-11T06:35:36.305Z,6.73
2018-06-11T06:36:09.957Z,9.50
2018-06-11T06:36:43.707Z,14.93
2018-06-11T06:37:17.363Z,5.33
2018-06-11T06:37:50.663Z,9.03
2018-06-11T06:38:23.999Z,6.93
2018-06-11T06:38:57.365Z,5.90
2018-06-11T06:39:30.663Z,8.53
2018-06-11T06:40:03.969Z,5.17
2018-06-11T06:40:37.313Z,14.10
2018-06-11T06:41:10.620Z,8.27
2018-06-11T06:41:43.978Z,7.50
2018-06-11T06:42:17.255Z,10.37
2018-06-11T06:42:50.585Z,10.27
2018-06-11T06:43:24.097Z,5.50
2018-06-11T06:43:57.398Z,5.97
2018-06-11T06:44:30.689Z,10.90
2018-06-11T06:45:04.517Z,6.20
2018-06-11T06:45:38.159Z,11.50
2018-06-11T06:46:11.441Z,7.93
2018-06-11T06:46:44.770Z,5.70
2018-06-11T06:47:18.091Z,8.63
2018-06-11T06:47:51.401Z,8.00
2018-06-11T06:48:27.227Z,9.93
2018-06-11T06:49:00.561Z,5.20
2018-06-11T06:49:33.821Z,6.23
2018-06-11T06:50:07.742Z,7.00
2018-06-11T06:50:41.059Z,9.67
2018-06-11T06:51:14.685Z,6.30
2018-06-11T06:51:48.103Z,9.47
2018-06-11T06:52:21.409Z,9.43
2018-06-11T06:52:54.707Z,8.47
2018-06-11T06:53:27.995Z,6.53
2018-06-11T06:54:01.296Z,6.67
2018-06-11T06:54:34.584Z,9.57
2018-06-11T06:55:07.907Z,6.50
2018-06-11T06:55:41.216Z,7.00
2018-06-11T06:56:14.491Z,6.63
2018-06-11T06:56:47.767Z,6.30
2018-06-11T06:57:21.491Z,5.00
2018-06-11T06:57:54.861Z,6.77
2018-06-11T06:58:28.159Z,9.20
2018-06-11T06:59:01.467Z,7.17
2018-06-11T06:59:34.807Z,10.20
2018-06-11T07:00:08.147Z,9.20
2018-06-11T07:00:41.440Z,25.57
2018-06-11T07:01:14.718Z,13.70
2018-06-11T07:01:48.005Z,8.50
2018-06-11T07:02:21.328Z,11.80
2018-06-11T07:02:54.597Z,6.53
2018-06-11T07:03:27.877Z,7.80
2018-06-11T07:04:01.195Z,4.93
2018-06-11T07:04:34.835Z,5.50
2018-06-11T07:05:08.135Z,5.80
2018-06-11T07:05:41.563Z,8.57
2018-06-11T07:06:14.877Z,5.70
2018-06-11T07:06:48.145Z,5.80
2018-06-11T07:07:21.468Z,6.10
2018-06-11T07:07:54.811Z,9.87
2018-06-11T07:08:28.107Z,4.73
2018-06-11T07:09:01.405Z,6.73
2018-06-11T07:09:34.793Z,6.30
2018-06-11T07:10:08.606Z,6.77
2018-06-11T07:10:42.437Z,10.50
2018-06-11T07:11:15.722Z,7.30
2018-06-11T07:11:49.010Z,7.80
2018-06-11T07:12:22.327Z,5.43
2018-06-11T07:12:55.649Z,5.10
2018-06-11T07:13:28.985Z,5.93
2018-06-11T07:14:02.035Z,7.73
2018-06-11T07:14:35.333Z,4.93
2018-06-11T07:15:08.622Z,5.17
2018-06-11T07:15:41.681Z,9.97
2018-06-11T07:16:14.983Z,9.50
2018-06-11T07:16:48.029Z,5.00
2018-06-11T07:17:21.306Z,4.20
2018-06-11T07:17:54.655Z,3.87
2018-06-11T07:18:27.946Z,4.73
2018-06-11T07:19:01.225Z,5.07
2018-06-11T07:19:34.509Z,8.10
2018-06-11T07:20:08.610Z,7.93
2018-06-11T07:20:42.039Z,6.37
2018-06-11T07:21:15.317Z,7.80
2018-06-11T07:21:48.397Z,7.17
2018-06-11T07:22:21.711Z,10.57
2018-06-11T07:22:55.006Z,7.00
2018-06-11T07:23:28.315Z,8.73
2018-06-11T07:24:01.613Z,3.97
2018-06-11T07:24:34.683Z,5.83
2018-06-11T07:25:07.765Z,5.40
2018-06-11T07:25:41.080Z,7.20
2018-06-11T07:26:14.462Z,8.97
2018-06-11T07:26:47.751Z,7.87
2018-06-11T07:27:21.079Z,6.67
2018-06-11T07:27:54.398Z,4.67
2018-06-11T07:28:27.753Z,3.83
2018-06-11T07:29:01.057Z,4.57
2018-06-11T07:29:34.379Z,5.40
2018-06-11T07:30:07.685Z,10.77
2018-06-11T07:30:40.768Z,15.80
2018-06-11T07:31:14.586Z,18.23
2018-06-11T07:31:48.030Z,5.10
2018-06-11T07:32:21.328Z,5.77
2018-06-11T07:32:54.650Z,4.40
2018-06-11T07:33:27.966Z,3.80
2018-06-11T07:34:01.249Z,8.00
2018-06-11T07:34:34.957Z,6.43
2018-06-11T07:35:08.288Z,10.67
2018-06-11T07:35:41.555Z,9.23
2018-06-11T07:36:15.213Z,4.77
2018-06-11T07:36:48.664Z,5.67
2018-06-11T07:37:21.957Z,8.20
2018-06-11T07:37:55.367Z,7.10
2018-06-11T07:38:28.685Z,6.60
2018-06-11T07:39:02.058Z,4.37
2018-06-11T07:39:35.351Z,5.87
2018-06-11T07:40:08.642Z,6.73
2018-06-11T07:40:41.931Z,3.77
2018-06-11T07:41:15.227Z,4.97
2018-06-11T07:41:48.884Z,5.13
2018-06-11T07:42:22.182Z,5.87
2018-06-11T07:42:55.476Z,4.50
2018-06-11T07:43:28.886Z,5.83
2018-06-11T07:44:02.190Z,4.43
2018-06-11T07:44:35.501Z,5.30
2018-06-11T07:45:08.772Z,3.13
2018-06-11T07:45:42.064Z,9.30
2018-06-11T07:46:15.367Z,6.47
2018-06-11T07:46:48.673Z,5.10
2018-06-11T07:47:22.220Z,4.83
2018-06-11T07:47:55.511Z,9.63
2018-06-11T07:48:28.830Z,4.77
2018-06-11T07:49:02.132Z,5.27
2018-06-11T07:49:35.461Z,6.40
2018-06-11T07:50:08.762Z,5.63
2018-06-11T07:50:42.039Z,5.50
2018-06-11T07:51:15.311Z,4.67
2018-06-11T07:51:48.686Z,5.53
2018-06-11T07:52:22.023Z,6.73
2018-06-11T07:52:55.295Z,6.97
2018-06-11T07:53:28.602Z,8.37
2018-06-11T07:54:01.861Z,3.90
2018-06-11T07:54:35.142Z,6.90
2018-06-11T07:55:08.460Z,5.40
2018-06-11T07:55:41.766Z,3.90
2018-06-11T07:56:15.082Z,6.67
2018-06-11T07:56:48.433Z,6.57
2018-06-11T07:57:21.488Z,7.50
2018-06-11T07:57:54.814Z,3.70
2018-06-11T07:58:28.132Z,4.30
2018-06-11T07:59:01.474Z,7.70
2018-06-11T07:59:34.807Z,5.27
2018-06-11T08:00:08.152Z,4.93
2018-06-11T08:00:41.451Z,5.40
2018-06-11T08:01:14.770Z,10.20
2018-06-11T08:01:48.041Z,4.43
2018-06-11T08:02:21.348Z,5.37
2018-06-11T08:02:54.648Z,5.50
2018-06-11T08:03:27.948Z,8.33
2018-06-11T08:04:01.420Z,6.63
2018-06-11T08:04:34.741Z,5.50
2018-06-11T08:05:08.102Z,8.70
2018-06-11T08:05:41.815Z,4.43
2018-06-11T08:06:17.034Z,5.40
2018-06-11T08:06:50.670Z,7.27
2018-06-11T08:07:24.327Z,4.33
2018-06-11T08:07:57.846Z,5.57
2018-06-11T08:08:31.186Z,8.00
2018-06-11T08:09:07.212Z,5.00
2018-06-11T08:09:40.529Z,5.93
2018-06-11T08:10:13.806Z,8.87
2018-06-11T08:10:47.186Z,6.43
2018-06-11T08:11:20.816Z,7.10
2018-06-11T08:11:54.344Z,2.70
2018-06-11T08:12:27.629Z,5.80
2018-06-11T08:13:00.908Z,8.70
2018-06-11T08:13:34.271Z,5.57
2018-06-11T08:14:07.822Z,3.60
2018-06-11T08:14:41.143Z,6.50
2018-06-11T08:15:14.471Z,8.07
2018-06-11T08:15:47.800Z,3.93
2018-06-11T08:16:21.060Z,6.80
2018-06-11T08:16:54.343Z,5.60
2018-06-11T08:17:27.636Z,5.40
2018-06-11T08:18:00.947Z,9.37
2018-06-11T08:18:34.248Z,5.20
2018-06-11T08:19:07.528Z,5.90
2018-06-11T08:19:40.825Z,5.80
2018-06-11T08:20:14.170Z,7.07
2018-06-11T08:20:47.924Z,4.10
2018-06-11T08:21:21.400Z,14.70
2018-06-11T08:21:54.694Z,30.17
2018-06-11T08:22:27.984Z,11.90
2018-06-11T08:23:01.290Z,14.97
2018-06-11T08:23:34.975Z,7.93
2018-06-11T08:24:08.735Z,5.83
2018-06-11T08:24:42.086Z,11.07
2018-06-11T08:25:15.477Z,7.43
2018-06-11T08:25:48.780Z,5.33
2018-06-11T08:26:22.098Z,5.77
2018-06-11T08:26:55.401Z,4.90
2018-06-11T08:27:28.789Z,3.90
2018-06-11T08:28:02.314Z,8.93
2018-06-11T08:28:35.653Z,5.90
2018-06-11T08:29:08.990Z,7.63
2018-06-11T08:29:42.710Z,5.93
2018-06-11T08:30:15.803Z,5.73
2018-06-11T08:30:49.126Z,10.03
2018-06-11T08:31:22.777Z,6.50
2018-06-11T08:31:56.044Z,6.63
2018-06-11T08:32:29.318Z,6.60
2018-06-11T08:33:02.584Z,6.93
2018-06-11T08:33:36.244Z,5.90
2018-06-11T08:34:09.555Z,5.20
2018-06-11T08:34:42.833Z,3.93
2018-06-11T08:35:16.838Z,9.33
2018-06-11T08:35:50.453Z,6.37